Time;durP1;ratioP1;P1;durP2;ratioP2;P2;SDS_P1;SDS_P2;PMS_P1;PMS_P2;Temp;Humidity;BMP_temperature;BMP_pressure;BME280_temperature;BME280_humidity;BME280_pressure;Samples;Min_cycle;Max_cycle;Signal;HPM_P1;HPM_P2
2023/09/14 00:00:29;;;;;;;4.95;2.63;;;;;;;-146.27;79.65;82428.38;5043651;28;20085;-66
2023/09/14 00:02:55;;;;;;;11.63;3.33;;;;;;;-146.27;80.42;82456.50;5034945;28;20096;-68
2023/09/14 00:05:20;;;;;;;5.72;2.92;;;;;;;-146.27;80.03;82412.31;5047245;28;20112;-67
2023/09/14 00:07:45;;;;;;;11.48;3.70;;;;;;;-146.27;79.56;82452.47;5039669;28;20029;-67
2023/09/14 00:10:11;;;;;;;6.63;3.13;;;;;;;-146.27;79.77;82466.56;5047812;28;20078;-68
2023/09/14 00:12:36;;;;;;;10.30;3.53;;;;;;;-146.27;80.05;82466.56;5034582;28;20074;-67
2023/09/14 00:15:02;;;;;;;5.82;3.08;;;;;;;-146.27;79.69;82430.38;5042490;28;20382;-67
2023/09/14 00:17:28;;;;;;;9.50;3.42;;;;;;;-146.27;80.18;82446.47;5028791;28;20037;-67
2023/09/14 00:19:53;;;;;;;8.82;3.38;;;;;;;-146.27;80.26;82460.53;5042194;28;20043;-68
2023/09/14 00:22:18;;;;;;;8.20;3.20;;;;;;;-146.27;79.52;82432.41;5045614;28;20024;-68
2023/09/14 00:24:44;;;;;;;6.85;3.00;;;;;;;-146.27;79.47;82488.66;5048405;28;20035;-67
2023/09/14 00:27:09;;;;;;;6.38;3.17;;;;;;;-146.27;79.83;82436.41;5061271;28;20044;-67
2023/09/14 00:29:34;;;;;;;12.75;3.53;;;;;;;-146.27;80.46;82452.47;5034075;28;20116;-66
2023/09/14 00:32:00;;;;;;;9.35;3.47;;;;;;;-146.27;80.09;82486.63;5047620;28;20043;-67
2023/09/14 00:34:25;;;;;;;7.65;3.72;;;;;;;-146.27;79.82;82484.63;5049223;28;20025;-68
2023/09/14 00:36:50;;;;;;;6.60;2.70;;;;;;;-146.27;79.99;82504.72;5053400;28;20433;-68
2023/09/14 00:39:16;;;;;;;8.65;3.20;;;;;;;-146.27;79.83;82514.75;5046819;28;20508;-68
2023/09/14 00:41:41;;;;;;;13.20;3.15;;;;;;;-146.27;79.61;82504.72;5039484;28;20575;-67
2023/09/14 00:44:06;;;;;;;11.80;3.42;;;;;;;-146.27;79.55;82484.63;5043015;28;20393;-67
2023/09/14 00:46:32;;;;;;;11.98;3.35;;;;;;;-146.27;79.26;82502.72;5042733;28;20040;-68
2023/09/14 00:48:59;;;;;;;14.82;4.57;;;;;;;-146.27;80.21;82466.56;5039595;28;20397;-68
2023/09/14 00:51:27;;;;;;;8.73;3.38;;;;;;;-146.27;80.29;82496.69;5048611;28;20040;-66
2023/09/14 00:53:54;;;;;;;10.20;3.15;;;;;;;-146.27;80.12;82508.72;5053810;28;20042;-66
2023/09/14 00:56:19;;;;;;;11.93;3.35;;;;;;;-146.27;79.54;82488.66;5050444;28;20021;-68
2023/09/14 00:58:47;;;;;;;3.95;2.72;;;;;;;-146.27;79.35;82492.66;5047436;28;20378;-66
2023/09/14 01:01:14;;;;;;;11.98;3.75;;;;;;;-146.27;79.01;82458.50;5041719;28;20132;-66
2023/09/14 01:03:40;;;;;;;7.40;4.35;;;;;;;-146.27;79.47;82492.66;5046340;28;20064;-68
2023/09/14 01:06:06;;;;;;;8.02;3.10;;;;;;;-146.27;79.72;82492.66;5037873;28;20021;-69
2023/09/14 01:08:31;;;;;;;7.47;3.80;;;;;;;-146.27;79.85;82504.72;5053613;28;20035;-68
2023/09/14 01:10:56;;;;;;;10.48;3.40;;;;;;;-146.27;80.05;82534.84;5050466;28;20025;-69
2023/09/14 01:13:30;;;;;;;14.27;3.65;;;;;;;-146.27;79.99;82550.91;5050562;28;20117;-69
2023/09/14 01:16:07;;;;;;;10.13;3.60;;;;;;;-146.27;80.29;82452.47;5048523;28;20033;-67
2023/09/14 01:18:46;;;;;;;10.50;3.72;;;;;;;-146.27;80.15;82524.81;5049011;28;20032;-68
2023/09/14 01:21:24;;;;;;;9.27;3.72;;;;;;;-146.27;79.63;82526.81;5042189;28;20402;-69
2023/09/14 01:24:16;;;;;;;5.25;3.10;;;;;;;-146.27;79.67;82564.97;5050455;28;20035;-68
2023/09/14 01:26:43;;;;;;;7.60;3.45;;;;;;;-146.27;79.72;82554.94;5047819;28;20053;-67
2023/09/14 01:29:09;;;;;;;7.35;3.03;;;;;;;-146.27;80.42;82524.81;5045796;28;20096;-68
2023/09/14 01:31:34;;;;;;;6.95;2.97;;;;;;;-146.27;79.72;82524.81;5051644;28;20128;-68
2023/09/14 01:34:00;;;;;;;10.73;3.80;;;;;;;-146.27;80.78;82526.81;5047618;28;20504;-67
2023/09/14 01:36:28;;;;;;;5.70;3.10;;;;;;;-146.27;80.27;82548.91;5046348;28;20048;-67
2023/09/14 01:38:54;;;;;;;9.93;3.38;;;;;;;-146.27;80.15;82558.97;5049656;28;20025;-67
2023/09/14 01:41:21;;;;;;;8.38;3.53;;;;;;;-146.27;79.99;82526.81;5052651;28;20025;-69
2023/09/14 01:43:50;;;;;;;9.73;3.35;;;;;;;-146.27;79.55;82496.69;5049057;28;20462;-67
2023/09/14 01:46:15;;;;;;;10.68;3.63;;;;;;;-146.27;79.41;82550.91;5051375;28;20092;-70
2023/09/14 01:48:41;;;;;;;5.05;3.40;;;;;;;-146.27;80.10;82540.88;5047024;28;20029;-67
2023/09/14 01:51:07;;;;;;;6.95;3.30;;;;;;;-146.27;80.61;82536.84;5048170;28;20017;-69
2023/09/14 01:53:33;;;;;;;10.70;3.92;;;;;;;-146.27;80.60;82548.91;5048148;28;20087;-69
2023/09/14 01:55:58;;;;;;;8.98;3.50;;;;;;;-146.27;80.43;82504.72;5048160;28;20037;-69
2023/09/14 01:58:25;;;;;;;9.80;4.18;;;;;;;-146.27;80.78;82532.84;5051541;28;20068;-69
2023/09/14 02:00:50;;;;;;;12.95;3.60;;;;;;;-146.27;80.52;82556.94;5048365;28;20029;-67
2023/09/14 02:03:15;;;;;;;9.07;4.20;;;;;;;-146.27;80.36;82528.81;5042830;28;20113;-68
2023/09/14 02:05:41;;;;;;;14.38;4.70;;;;;;;-146.27;80.70;82564.97;5044031;28;20025;-68
2023/09/14 02:08:06;;;;;;;6.65;4.55;;;;;;;-146.27;80.42;82562.97;5038218;28;20509;-68
2023/09/14 02:10:31;;;;;;;7.93;3.75;;;;;;;-146.27;80.17;82575.03;5053652;28;20036;-68
2023/09/14 02:12:57;;;;;;;14.95;5.30;;;;;;;-146.27;80.18;82575.03;5047881;28;20033;-68
2023/09/14 02:15:22;;;;;;;11.52;3.78;;;;;;;-146.27;79.85;82593.09;5049055;28;20098;-68
2023/09/14 02:17:48;;;;;;;8.15;3.95;;;;;;;-146.27;79.88;82564.97;5051209;28;20036;-67
2023/09/14 02:20:14;;;;;;;7.10;3.53;;;;;;;-146.27;79.89;82556.94;5047050;28;20036;-67
2023/09/14 02:22:40;;;;;;;7.47;3.72;;;;;;;-146.27;80.24;82593.09;5050243;28;20397;-67
2023/09/14 02:25:05;;;;;;;6.40;3.45;;;;;;;-146.27;79.91;82587.09;5048651;28;20046;-67
2023/09/14 02:27:31;;;;;;;10.38;3.85;;;;;;;-146.27;79.88;82548.91;5050326;28;20071;-67
2023/09/14 02:29:56;;;;;;;6.78;3.80;;;;;;;-146.27;80.12;82558.97;5051294;28;20111;-67
2023/09/14 02:32:22;;;;;;;15.65;4.28;;;;;;;-146.27;80.15;82548.91;5049229;28;20508;-67
2023/09/14 02:34:48;;;;;;;7.50;3.85;;;;;;;-146.27;80.13;82548.91;5046489;28;20063;-68
2023/09/14 02:37:13;;;;;;;6.70;3.50;;;;;;;-146.27;79.99;82560.97;5037751;28;20025;-67
2023/09/14 02:39:39;;;;;;;13.27;4.68;;;;;;;-146.27;80.14;82554.94;5042845;28;20064;-68
2023/09/14 02:42:04;;;;;;;6.97;3.88;;;;;;;-146.27;80.32;82623.25;5044057;28;20075;-67
2023/09/14 02:44:30;;;;;;;12.25;3.95;;;;;;;-146.27;80.71;82619.22;5047056;28;20137;-68
2023/09/14 02:46:56;;;;;;;7.45;3.58;;;;;;;-146.27;81.08;82593.09;5044936;28;20075;-67
2023/09/14 02:49:21;;;;;;;8.80;3.47;;;;;;;-146.27;80.90;82552.94;5045922;28;20032;-67
2023/09/14 02:51:47;;;;;;;8.05;4.03;;;;;;;-146.27;80.86;82577.03;5048038;28;20059;-66
2023/09/14 02:54:13;;;;;;;6.50;3.65;;;;;;;-146.27;80.40;82617.22;5044961;28;20024;-68
2023/09/14 02:56:39;;;;;;;8.57;4.18;;;;;;;-146.27;81.55;82633.28;5045606;28;20028;-67
2023/09/14 02:59:05;;;;;;;12.75;3.92;;;;;;;-146.27;80.71;82573.00;5047597;28;20029;-66
2023/09/14 03:01:31;;;;;;;5.97;3.42;;;;;;;-146.27;80.81;82629.28;5049001;28;20029;-67
2023/09/14 03:03:57;;;;;;;7.45;4.13;;;;;;;-146.27;80.63;82631.28;5049948;28;20040;-67
2023/09/14 03:06:22;;;;;;;8.02;3.35;;;;;;;-146.27;80.29;82653.38;5055392;28;20029;-68
2023/09/14 03:08:48;;;;;;;5.22;3.42;;;;;;;-146.27;80.11;82663.41;5037670;28;20167;-66
2023/09/14 03:11:13;;;;;;;8.32;4.20;;;;;;;-146.27;80.13;82649.34;5039570;28;20029;-67
2023/09/14 03:13:39;;;;;;;8.48;3.88;;;;;;;-146.27;80.62;82643.31;5044757;28;20070;-68
2023/09/14 03:16:04;;;;;;;13.55;4.93;;;;;;;-146.27;80.67;82633.28;5048128;28;20123;-69
2023/09/14 03:18:29;;;;;;;6.47;3.70;;;;;;;-146.27;80.30;82667.44;5050318;28;20086;-68
2023/09/14 03:20:56;;;;;;;10.68;3.70;;;;;;;-146.27;80.20;82667.44;5033615;28;20029;-67
2023/09/14 03:23:24;;;;;;;4.45;3.40;;;;;;;-146.27;80.48;82665.44;5035099;28;20028;-67
2023/09/14 03:25:50;;;;;;;9.95;3.75;;;;;;;-146.27;80.18;82677.47;5034890;28;20029;-67
2023/09/14 03:28:18;;;;;;;8.15;3.28;;;;;;;-146.27;80.23;82665.44;5043762;28;20058;-67
2023/09/14 03:30:44;;;;;;;7.15;3.40;;;;;;;-146.27;80.46;82669.44;5050884;28;20488;-67
2023/09/14 03:33:10;;;;;;;8.00;4.18;;;;;;;-146.27;81.64;82609.19;5049544;28;20388;-67
2023/09/14 03:35:36;;;;;;;5.95;3.60;;;;;;;-146.27;81.40;82641.31;5050457;28;20029;-67
2023/09/14 03:38:02;;;;;;;12.13;4.25;;;;;;;-146.27;81.30;82653.38;5047870;28;20036;-67
2023/09/14 03:40:27;;;;;;;12.98;3.38;;;;;;;-146.27;81.14;82599.13;5051571;28;20086;-66
2023/09/14 03:42:53;;;;;;;12.32;3.78;;;;;;;-146.27;81.67;82657.41;5041716;28;20513;-66
2023/09/14 03:45:18;;;;;;;8.30;3.65;;;;;;;-146.27;81.95;82560.97;5049997;28;20460;-68
2023/09/14 03:47:44;;;;;;;10.50;3.95;;;;;;;-146.27;81.28;82643.31;5045607;28;20029;-69
2023/09/14 03:50:10;;;;;;;7.38;3.50;;;;;;;-146.27;80.78;82621.22;5042637;28;20564;-67
2023/09/14 03:52:36;;;;;;;10.32;3.47;;;;;;;-146.27;80.75;82649.34;5046301;28;20034;-66
2023/09/14 03:55:04;;;;;;;9.93;3.65;;;;;;;-146.27;80.42;82609.19;5030918;28;20129;-67
2023/09/14 03:57:30;;;;;;;12.73;4.10;;;;;;;-146.27;80.89;82637.31;5047483;28;20060;-65
2023/09/14 03:59:56;;;;;;;8.85;3.58;;;;;;;-146.27;81.15;82665.44;5043651;28;20098;-68
2023/09/14 04:02:23;;;;;;;10.35;3.53;;;;;;;-146.27;81.09;82647.34;5050048;28;20040;-66
2023/09/14 04:04:49;;;;;;;11.30;3.67;;;;;;;-146.27;81.32;82705.59;5045420;28;20029;-68
2023/09/14 04:07:16;;;;;;;5.90;3.67;;;;;;;-146.27;81.54;82645.34;5036979;28;20082;-67
2023/09/14 04:09:41;;;;;;;10.20;3.38;;;;;;;-146.27;81.59;82701.59;5042781;28;20128;-66
2023/09/14 04:12:07;;;;;;;11.65;3.60;;;;;;;-146.27;81.28;82689.53;5040429;28;20108;-67
2023/09/14 04:14:33;;;;;;;8.55;3.67;;;;;;;-146.27;81.19;82691.53;5049603;28;20053;-65
2023/09/14 04:17:00;;;;;;;7.43;3.80;;;;;;;-146.27;81.34;82715.66;5044605;28;20017;-65
2023/09/14 04:19:27;;;;;;;9.45;3.22;;;;;;;-146.27;81.33;82753.81;5041276;28;20036;-67
2023/09/14 04:21:53;;;;;;;6.28;3.50;;;;;;;-146.27;81.02;82725.69;5045485;28;20053;-68
2023/09/14 04:24:19;;;;;;;7.78;3.85;;;;;;;-146.27;81.09;82701.59;5045927;28;20033;-68
2023/09/14 04:26:44;;;;;;;5.35;3.20;;;;;;;-146.27;81.28;82794.00;5030712;28;20116;-67
2023/09/14 04:29:10;;;;;;;9.10;3.92;;;;;;;-146.27;80.98;82689.53;5044757;28;20033;-67
2023/09/14 04:31:36;;;;;;;14.45;5.35;;;;;;;-146.27;80.86;82729.72;5047062;28;20032;-68
2023/09/14 04:34:01;;;;;;;10.15;3.95;;;;;;;-146.27;81.16;82721.69;5043054;28;20439;-67
2023/09/14 04:36:27;;;;;;;9.00;4.30;;;;;;;-146.27;81.13;82713.66;5048917;28;20446;-68
2023/09/14 04:38:52;;;;;;;8.90;3.47;;;;;;;-146.27;81.20;82717.66;5048543;28;20064;-68
2023/09/14 04:41:17;;;;;;;9.55;3.72;;;;;;;-146.27;81.13;82727.72;5039207;28;20036;-69
2023/09/14 04:43:43;;;;;;;6.97;3.75;;;;;;;-146.27;81.13;82737.75;5048359;28;20036;-67
2023/09/14 04:46:08;;;;;;;7.97;3.67;;;;;;;-146.27;81.38;82753.81;5049076;28;20047;-68
2023/09/14 04:48:35;;;;;;;9.35;4.10;;;;;;;-146.27;81.03;82737.75;5049622;28;20041;-68
2023/09/14 04:51:00;;;;;;;7.55;3.28;;;;;;;-146.27;81.37;82725.69;5042849;28;20063;-68
2023/09/14 04:53:26;;;;;;;6.38;2.97;;;;;;;-146.27;81.08;82727.72;5041878;28;20064;-69
2023/09/14 04:55:52;;;;;;;10.45;4.28;;;;;;;-146.27;81.18;82725.69;5046628;28;20083;-69
2023/09/14 04:58:18;;;;;;;8.57;3.97;;;;;;;-146.27;81.25;82721.69;5039335;28;20509;-70
2023/09/14 05:00:47;;;;;;;9.80;3.47;;;;;;;-146.27;81.30;82721.69;5034093;28;20021;-68
2023/09/14 05:03:12;;;;;;;8.15;3.63;;;;;;;-146.27;81.30;82737.75;5039054;28;20031;-67
2023/09/14 05:05:37;;;;;;;10.50;3.65;;;;;;;-146.27;81.63;82739.75;5040292;28;20389;-69
2023/09/14 05:08:03;;;;;;;12.55;3.25;;;;;;;-146.27;81.90;82717.66;5041867;28;20021;-68
2023/09/14 05:10:28;;;;;;;8.75;3.90;;;;;;;-146.27;82.47;82699.59;5032675;28;20033;-68
2023/09/14 05:12:54;;;;;;;6.80;3.03;;;;;;;-146.27;82.42;82677.47;5043966;28;20108;-66
2023/09/14 05:15:19;;;;;;;7.82;3.22;;;;;;;-146.27;83.25;82745.78;5047522;28;20508;-70
2023/09/14 05:17:45;;;;;;;4.38;3.20;;;;;;;-146.27;82.88;82705.59;5033616;28;20524;-68
2023/09/14 05:20:11;;;;;;;10.55;4.22;;;;;;;-146.27;83.06;82685.50;5037477;28;20048;-67
2023/09/14 05:22:38;;;;;;;9.63;3.60;;;;;;;-146.27;83.86;82691.53;5041943;28;20503;-68
2023/09/14 05:25:04;;;;;;;7.03;3.47;;;;;;;-146.27;82.44;82637.31;5043551;28;20058;-67
2023/09/14 05:27:35;;;;;;;13.40;3.53;;;;;;;-146.27;82.00;82635.28;5037843;28;20083;-67
2023/09/14 05:30:00;;;;;;;8.43;3.85;;;;;;;-146.27;81.91;82645.34;5043226;28;20111;-68
2023/09/14 05:32:26;;;;;;;13.07;3.75;;;;;;;-146.27;82.34;82619.22;5046189;28;20120;-69
2023/09/14 05:34:51;;;;;;;13.50;3.75;;;;;;;-146.27;82.72;82651.38;5048525;28;20024;-70
2023/09/14 05:37:16;;;;;;;7.82;3.67;;;;;;;-146.27;82.18;82633.28;5053009;28;20025;-70
2023/09/14 05:39:42;;;;;;;6.40;3.50;;;;;;;-146.27;82.18;82649.34;5048113;28;20029;-68
2023/09/14 05:42:07;;;;;;;5.70;3.00;;;;;;;-146.27;82.38;82560.97;5057540;28;20020;-69
2023/09/14 05:44:33;;;;;;;11.20;3.45;;;;;;;-146.27;82.65;82625.25;5051238;28;20235;-68
2023/09/14 05:46:58;;;;;;;6.57;3.53;;;;;;;-146.27;82.91;82621.22;5055067;28;20032;-70
2023/09/14 05:49:24;;;;;;;5.90;3.20;;;;;;;-146.27;82.55;82641.31;5040856;28;20032;-68
2023/09/14 05:51:49;;;;;;;7.13;3.40;;;;;;;-146.27;82.47;82581.06;5046958;28;20040;-68
2023/09/14 05:54:14;;;;;;;12.65;4.28;;;;;;;-146.27;83.26;82589.09;5056178;28;20024;-67
2023/09/14 05:56:40;;;;;;;13.27;4.00;;;;;;;-146.27;82.83;82548.91;5041714;28;20036;-68
2023/09/14 05:59:05;;;;;;;16.67;3.78;;;;;;;-146.27;82.49;82500.69;5049886;28;20059;-69
2023/09/14 06:01:30;;;;;;;12.60;4.28;;;;;;;-146.27;81.97;82464.53;5057403;28;20021;-69
2023/09/14 06:03:56;;;;;;;12.65;3.58;;;;;;;-146.27;82.33;82438.44;5052741;28;20087;-69
2023/09/14 06:06:21;;;;;;;7.60;3.80;;;;;;;-146.27;82.33;82524.81;5039900;28;20044;-67
2023/09/14 06:08:47;;;;;;;10.70;3.92;;;;;;;-146.27;82.38;82488.66;5043577;28;20029;-70
2023/09/14 06:11:12;;;;;;;10.68;4.38;;;;;;;-146.27;82.41;82508.72;5050214;28;20033;-69
2023/09/14 06:13:38;;;;;;;13.88;4.60;;;;;;;-146.27;81.96;82418.34;5046590;28;20051;-70
2023/09/14 06:16:03;;;;;;;15.93;4.70;;;;;;;-146.27;82.22;82450.47;5046029;28;20038;-69
2023/09/14 06:18:29;;;;;;;14.40;4.88;;;;;;;-146.27;82.14;82450.47;5046323;28;20473;-69
2023/09/14 06:20:54;;;;;;;10.57;4.40;;;;;;;-146.27;82.15;82436.41;5052805;28;20048;-70
2023/09/14 06:23:19;;;;;;;9.30;3.97;;;;;;;-146.27;81.96;82448.47;5047261;28;20021;-70
2023/09/14 06:25:45;;;;;;;7.95;4.30;;;;;;;-146.27;82.28;82416.31;5051150;28;20059;-69
2023/09/14 06:28:10;;;;;;;12.85;4.40;;;;;;;-146.27;81.98;82396.25;5043814;28;20025;-69
2023/09/14 06:30:36;;;;;;;12.20;4.50;;;;;;;-146.27;82.08;82392.22;5035403;28;20024;-68
2023/09/14 06:33:01;;;;;;;12.35;4.63;;;;;;;-146.27;81.38;82380.16;5043173;28;20424;-68
2023/09/14 06:35:26;;;;;;;12.35;4.13;;;;;;;-146.27;82.17;82408.28;5050865;28;20480;-69
2023/09/14 06:37:52;;;;;;;13.18;4.32;;;;;;;-146.27;82.11;82380.16;5047794;28;20464;-69
2023/09/14 06:40:17;;;;;;;10.68;4.10;;;;;;;-146.27;82.02;82384.19;5049965;28;20529;-68
2023/09/14 06:42:43;;;;;;;7.50;3.95;;;;;;;-146.27;82.04;82374.13;5041615;28;20058;-67
2023/09/14 06:45:08;;;;;;;10.02;5.20;;;;;;;-146.27;82.23;82360.09;5036675;28;20033;-68
2023/09/14 06:47:34;;;;;;;13.07;4.60;;;;;;;-146.27;82.13;82386.19;5043516;28;20079;-68
2023/09/14 06:49:59;;;;;;;9.82;4.55;;;;;;;-146.27;81.95;82364.09;5037750;28;20025;-68
2023/09/14 06:52:25;;;;;;;12.70;4.70;;;;;;;-146.27;81.81;82346.03;5041775;28;20025;-69
2023/09/14 06:54:50;;;;;;;11.13;5.10;;;;;;;-146.27;81.60;82340.00;5051747;28;20365;-69
2023/09/14 06:57:16;;;;;;;9.93;5.03;;;;;;;-146.27;81.59;82327.94;5052083;28;20021;-68
2023/09/14 06:59:41;;;;;;;8.48;4.20;;;;;;;-146.27;81.49;82325.94;5050039;28;20366;-67
2023/09/14 07:02:07;;;;;;;12.65;5.15;;;;;;;-146.27;81.51;82315.88;5049098;28;20472;-69
2023/09/14 07:04:34;;;;;;;11.98;4.88;;;;;;;-146.27;81.68;82309.88;5051521;28;20029;-68
2023/09/14 07:07:00;;;;;;;15.52;5.15;;;;;;;-146.27;81.85;82323.91;5051097;28;20029;-68
2023/09/14 07:09:26;;;;;;;13.32;5.63;;;;;;;-146.27;81.68;82283.75;5051793;28;20151;-68
2023/09/14 07:11:51;;;;;;;13.23;5.47;;;;;;;-146.27;81.84;82307.84;5047516;28;20477;-67
2023/09/14 07:14:17;;;;;;;15.30;5.75;;;;;;;-146.27;82.06;82303.84;5041583;28;20032;-68
2023/09/14 07:16:42;;;;;;;12.77;5.25;;;;;;;-146.27;82.23;82289.78;5047782;28;20024;-69
2023/09/14 07:19:08;;;;;;;22.73;6.07;;;;;;;-146.27;82.00;82271.69;5044909;28;20112;-69
2023/09/14 07:21:36;;;;;;;15.98;6.40;;;;;;;-146.27;82.03;82239.56;5049557;28;20051;-69
2023/09/14 07:24:05;;;;;;;15.43;5.22;;;;;;;-146.27;81.87;82251.59;5047938;28;20051;-68
2023/09/14 07:26:31;;;;;;;13.73;5.85;;;;;;;-146.27;81.81;82213.44;5053887;28;20077;-70
2023/09/14 07:28:56;;;;;;;15.82;5.53;;;;;;;-146.27;81.60;82231.53;5033377;28;20025;-69
2023/09/14 07:31:22;;;;;;;12.20;4.85;;;;;;;-146.27;82.00;82239.56;5050027;28;20171;-70
2023/09/14 07:33:48;;;;;;;11.00;5.20;;;;;;;-146.27;81.57;82185.31;5064653;28;20064;-67
2023/09/14 07:36:13;;;;;;;12.18;4.97;;;;;;;-146.27;81.18;82123.06;5048183;28;20469;-68
2023/09/14 07:38:39;;;;;;;18.30;6.20;;;;;;;-146.27;80.97;82153.19;5040383;28;20024;-68
2023/09/14 07:41:04;;;;;;;10.85;4.65;;;;;;;-146.27;81.20;82135.09;5048011;28;20051;-68
2023/09/14 07:43:29;;;;;;;10.27;5.38;;;;;;;-146.27;81.23;82137.13;5045303;28;20032;-68
2023/09/14 07:45:56;;;;;;;19.02;5.35;;;;;;;-146.27;81.25;82062.78;5046270;28;20052;-68
2023/09/14 07:48:21;;;;;;;11.88;5.10;;;;;;;-146.27;80.94;82102.97;5060271;28;20468;-70
2023/09/14 07:50:47;;;;;;;14.13;4.90;;;;;;;-146.27;80.86;82066.81;5048621;28;20152;-68
2023/09/14 07:53:13;;;;;;;14.38;5.38;;;;;;;-146.27;80.45;82032.66;5047355;28;20111;-66
2023/09/14 07:55:39;;;;;;;10.23;4.30;;;;;;;-146.27;80.25;81980.44;5056241;28;20040;-68
2023/09/14 07:58:08;;;;;;;15.82;5.18;;;;;;;-146.27;79.91;81988.47;5062878;28;20029;-68
2023/09/14 08:00:34;;;;;;;14.95;5.28;;;;;;;-146.27;79.63;81956.34;5035660;28;20036;-67
2023/09/14 08:02:59;;;;;;;18.77;5.40;;;;;;;-146.27;79.72;81906.13;5051821;28;20028;-70
2023/09/14 08:05:25;;;;;;;12.70;4.93;;;;;;;-146.27;79.38;81898.09;5032333;28;20030;-68
2023/09/14 08:07:50;;;;;;;16.45;5.47;;;;;;;-146.27;78.85;81859.94;5048799;28;20032;-69
2023/09/14 08:10:16;;;;;;;8.00;3.95;;;;;;;-146.27;78.38;81876.00;5061621;28;20103;-69
2023/09/14 08:12:41;;;;;;;11.55;4.53;;;;;;;-146.27;78.22;81894.06;5065449;28;20021;-68
2023/09/14 08:15:07;;;;;;;9.32;4.32;;;;;;;-146.27;77.95;81906.13;5049132;28;20068;-68
2023/09/14 08:17:33;;;;;;;11.32;4.28;;;;;;;-146.27;77.41;81847.88;5061835;28;20091;-68
2023/09/14 08:19:59;;;;;;;9.77;4.60;;;;;;;-146.27;77.06;81843.84;5054832;28;20033;-68
2023/09/14 08:22:25;;;;;;;10.85;4.75;;;;;;;-146.27;77.83;81799.66;5060953;28;20587;-68
2023/09/14 08:24:51;;;;;;;8.77;4.30;;;;;;;-146.27;77.23;81713.31;5061897;28;20032;-67
2023/09/14 08:27:16;;;;;;;13.05;4.47;;;;;;;-146.27;75.90;81745.44;5052237;28;20037;-69
2023/09/14 08:29:43;;;;;;;9.00;4.30;;;;;;;-146.27;75.97;81701.25;5056517;28;20104;-70
2023/09/14 08:32:09;;;;;;;14.68;4.50;;;;;;;-146.27;76.23;81649.03;5052324;28;20049;-68
2023/09/14 08:34:35;;;;;;;12.30;4.65;;;;;;;-146.27;75.67;81673.13;5061622;28;20040;-67
2023/09/14 08:37:00;;;;;;;19.80;5.05;;;;;;;-146.27;75.71;81665.09;5045968;28;20070;-68
2023/09/14 08:39:25;;;;;;;17.90;5.03;;;;;;;-146.27;74.76;81685.19;5051595;28;20369;-70
2023/09/14 08:41:51;;;;;;;15.20;4.47;;;;;;;-146.27;74.68;81600.84;5049660;28;20025;-68
2023/09/14 08:44:19;;;;;;;13.25;4.22;;;;;;;-146.27;74.69;81576.72;5048493;28;20112;-70
2023/09/14 08:46:46;;;;;;;14.55;4.80;;;;;;;-146.27;74.38;81632.97;5053253;28;20384;-68
2023/09/14 08:49:13;;;;;;;16.17;4.25;;;;;;;-146.27;73.97;81602.84;5060199;28;20063;-69
2023/09/14 08:51:41;;;;;;;8.43;4.22;;;;;;;-146.27;73.75;81530.53;5058350;28;20033;-70
2023/09/14 08:54:07;;;;;;;11.57;3.88;;;;;;;-146.27;73.26;81462.25;5050645;28;20098;-69
2023/09/14 08:56:33;;;;;;;11.55;4.00;;;;;;;-146.27;73.45;81387.94;5047090;28;20067;-67
2023/09/14 08:59:01;;;;;;;11.23;4.03;;;;;;;-146.27;72.14;81379.91;5056152;28;20017;-70
2023/09/14 09:01:27;;;;;;;12.43;4.43;;;;;;;-146.27;71.79;81331.72;5049845;28;20044;-69
2023/09/14 09:03:52;;;;;;;9.75;4.22;;;;;;;-146.27;70.51;81424.09;5053155;28;20481;-69
2023/09/14 09:06:17;;;;;;;11.30;4.22;;;;;;;-146.27;71.10;81456.22;5053435;28;20105;-68
2023/09/14 09:08:43;;;;;;;7.07;3.65;;;;;;;-146.27;70.81;81339.75;5059887;28;20385;-71
2023/09/14 09:11:09;;;;;;;7.75;3.65;;;;;;;-146.27;70.89;81279.50;5045431;28;20037;-69
2023/09/14 09:13:39;;;;;;;7.28;3.90;;;;;;;-146.27;70.84;81279.50;5065137;28;20024;-69
2023/09/14 09:16:05;;;;;;;10.25;4.05;;;;;;;-146.27;69.58;81203.19;5056599;28;20044;-71
2023/09/14 09:18:30;;;;;;;8.73;3.50;;;;;;;-146.27;69.55;81148.97;5062114;28;20082;-69
2023/09/14 09:20:57;;;;;;;12.07;2.92;;;;;;;-146.27;67.36;81132.91;5060082;28;20534;-70
2023/09/14 09:23:25;;;;;;;6.18;2.65;;;;;;;-146.27;65.59;81221.25;5050572;28;20028;-70
2023/09/14 09:25:54;;;;;;;8.30;3.28;;;;;;;-146.27;66.29;81171.06;5064591;28;20032;-71
2023/09/14 09:28:28;;;;;;;6.63;3.10;;;;;;;-146.27;65.54;81076.66;5069289;28;20028;-70
2023/09/14 09:30:54;;;;;;;5.53;2.92;;;;;;;-146.27;64.82;80994.34;5056942;28;20024;-72
2023/09/14 09:33:35;;;;;;;8.38;3.17;;;;;;;-146.27;62.37;80946.13;5051507;28;20052;-71
2023/09/14 09:36:14;;;;;;;8.07;3.03;;;;;;;-146.27;62.40;80903.97;5060675;28;20032;-70
2023/09/14 09:38:40;;;;;;;12.35;3.53;;;;;;;-146.27;62.75;80845.75;5051740;28;20100;-70
2023/09/14 09:41:11;;;;;;;7.80;2.65;;;;;;;-146.27;62.34;80797.53;5050474;28;20100;-70
2023/09/14 09:43:41;;;;;;;9.30;3.40;;;;;;;-146.27;60.64;80863.81;5065451;28;20031;-69
2023/09/14 09:46:16;;;;;;;6.05;2.47;;;;;;;-146.27;60.80;80859.78;5044406;28;20063;-70
2023/09/14 09:48:42;;;;;;;11.00;3.35;;;;;;;-146.27;60.32;80899.97;5044875;28;20090;-70
2023/09/14 09:51:08;;;;;;;6.40;3.10;;;;;;;-146.27;60.51;80775.47;5064591;28;20052;-70
2023/09/14 09:53:35;;;;;;;8.38;3.60;;;;;;;-146.27;60.65;80759.41;5049642;28;20021;-70
2023/09/14 09:56:01;;;;;;;11.43;3.97;;;;;;;-146.27;59.73;80729.28;5061853;28;20056;-70
2023/09/14 09:58:34;;;;;;;9.05;3.38;;;;;;;-146.27;58.86;80661.00;5069403;28;20060;-69
2023/09/14 10:01:00;;;;;;;6.03;2.95;;;;;;;-146.27;55.40;80665.03;5059891;28;20025;-70
2023/09/14 10:03:25;;;;;;;12.85;2.72;;;;;;;-146.27;55.73;80602.78;5058425;28;20679;-70
2023/09/14 10:05:51;;;;;;;5.85;2.63;;;;;;;-146.27;51.00;80530.50;5064164;28;20048;-70
2023/09/14 10:08:21;;;;;;;8.20;2.30;;;;;;;-146.27;54.83;80397.97;5055807;28;20027;-71
2023/09/14 10:10:51;;;;;;;5.07;2.40;;;;;;;-146.27;48.98;80492.34;5049061;28;20391;-70
2023/09/14 10:13:22;;;;;;;8.55;2.90;;;;;;;-146.27;51.33;80504.38;5043844;28;20030;-70
2023/09/14 10:15:53;;;;;;;15.98;3.75;;;;;;;-146.27;52.66;80584.69;5066188;28;20423;-71
2023/09/14 10:18:20;;;;;;;10.35;3.63;;;;;;;-146.27;52.99;80753.38;5055749;28;20329;-71
2023/09/14 10:20:49;;;;;;;4.78;3.10;;;;;;;-146.27;52.47;80767.44;5059787;28;20561;-71
2023/09/14 10:23:16;;;;;;;8.95;2.83;;;;;;;-146.27;53.82;80775.47;5049863;28;20027;-71
2023/09/14 10:25:45;;;;;;;8.60;2.63;;;;;;;-146.27;53.27;80857.78;5048127;28;20118;-69
2023/09/14 10:28:13;;;;;;;10.55;2.35;;;;;;;-146.27;52.35;80877.88;5050383;28;20036;-70
2023/09/14 10:30:39;;;;;;;7.72;2.50;;;;;;;-146.27;53.15;80885.91;5048677;28;20425;-69
2023/09/14 10:33:07;;;;;;;6.13;2.60;;;;;;;-146.27;53.53;80881.88;5045413;28;20389;-69
2023/09/14 10:35:33;;;;;;;7.13;3.17;;;;;;;-146.27;54.07;80950.16;5059489;28;20047;-69
2023/09/14 10:37:59;;;;;;;6.40;2.38;;;;;;;-146.27;54.48;80964.22;5044450;28;20104;-69
2023/09/14 10:40:27;;;;;;;4.10;2.58;;;;;;;-146.27;55.14;80958.19;5067583;28;20024;-68
2023/09/14 10:42:52;;;;;;;9.85;2.97;;;;;;;-146.27;57.11;81006.38;5047951;28;20504;-68
2023/09/14 10:45:19;;;;;;;10.07;3.70;;;;;;;-146.27;58.67;81042.53;5043043;28;20025;-66
2023/09/14 10:47:50;;;;;;;6.97;3.20;;;;;;;-146.27;58.62;81040.53;5049880;28;20036;-67
2023/09/14 10:50:19;;;;;;;6.40;2.70;;;;;;;-146.27;58.07;81066.63;5057122;28;20432;-66
2023/09/14 10:52:44;;;;;;;8.93;3.95;;;;;;;-146.27;58.97;81056.59;5064359;28;20915;-69
2023/09/14 10:55:10;;;;;;;6.05;2.70;;;;;;;-146.27;56.77;81014.41;5055457;28;20035;-68
2023/09/14 10:57:39;;;;;;;8.63;2.60;;;;;;;-146.27;55.79;81008.41;5047925;28;20025;-69
2023/09/14 11:00:05;;;;;;;9.65;2.80;;;;;;;-146.27;55.25;81018.44;5051330;28;20045;-68
2023/09/14 11:02:36;;;;;;;7.90;3.42;;;;;;;-146.27;56.33;80980.28;5044834;28;20020;-69
2023/09/14 11:05:16;;;;;;;6.88;2.53;;;;;;;-146.27;55.21;80946.13;5038201;28;20043;-69
2023/09/14 11:07:44;;;;;;;6.07;2.47;;;;;;;-146.27;57.24;80831.69;5064332;28;20523;-69
2023/09/14 11:10:15;;;;;;;5.93;2.38;;;;;;;-146.27;55.29;80707.19;5067763;28;20040;-69